Time;durP1;ratioP1;P1;durP2;ratioP2;P2;SDS_P1;SDS_P2;PMS_P1;PMS_P2;Temp;Humidity;BMP_temperature;BMP_pressure;BME280_temperature;BME280_humidity;BME280_pressure;Samples;Min_cycle;Max_cycle;Signal;HPM_P1;HPM_P2
2022/01/09 00:00:14;;;;;;;21.83;10.15;;;-0.80;63.40;;;;;;5116934;28;20047;-19
2022/01/09 00:02:41;;;;;;;18.02;9.30;;;-0.80;62.80;;;;;;5117018;28;20069;-20
2022/01/09 00:05:07;;;;;;;27.83;16.67;;;-0.70;62.60;;;;;;5116631;28;20103;-19
2022/01/09 00:07:34;;;;;;;26.63;14.75;;;-0.70;62.20;;;;;;5116435;28;20568;-20
2022/01/09 00:10:00;;;;;;;33.72;16.70;;;-0.70;62.40;;;;;;5117171;28;20110;-19
2022/01/09 00:12:26;;;;;;;22.38;12.63;;;-0.70;62.30;;;;;;5116625;28;20020;-20
2022/01/09 00:14:53;;;;;;;40.28;21.75;;;-0.60;62.00;;;;;;5117123;28;20157;-19
2022/01/09 00:17:20;;;;;;;56.10;30.80;;;-0.60;62.20;;;;;;5116616;28;20034;-19
2022/01/09 00:19:46;;;;;;;81.78;45.88;;;-0.60;63.50;;;;;;5116347;28;20380;-19
2022/01/09 00:22:15;;;;;;;69.80;37.55;;;-0.60;65.80;;;;;;5098147;28;20023;-20
2022/01/09 00:24:41;;;;;;;70.38;39.00;;;-0.60;67.20;;;;;;5116129;28;20023;-19
2022/01/09 00:27:07;;;;;;;66.88;38.38;;;-0.60;66.70;;;;;;5116058;28;20024;-19
2022/01/09 00:29:33;;;;;;;64.28;36.40;;;-0.70;68.40;;;;;;5116164;28;20028;-19
2022/01/09 00:31:59;;;;;;;65.28;35.45;;;-0.70;68.50;;;;;;5116405;28;20126;-19
2022/01/09 00:34:25;;;;;;;58.63;33.10;;;-0.70;68.30;;;;;;5116157;28;20024;-19
2022/01/09 00:36:51;;;;;;;63.33;36.22;;;-0.70;68.40;;;;;;5116025;28;20042;-19
2022/01/09 00:39:17;;;;;;;64.63;35.63;;;-0.70;67.90;;;;;;5115988;28;20083;-19
2022/01/09 00:41:43;;;;;;;60.38;34.08;;;-0.70;69.50;;;;;;5116215;28;20023;-19
2022/01/09 00:44:09;;;;;;;51.63;27.80;;;-0.70;69.40;;;;;;5116150;28;20066;-19
2022/01/09 00:46:35;;;;;;;49.60;27.25;;;-0.70;69.40;;;;;;5115836;28;20410;-19
2022/01/09 00:49:05;;;;;;;50.65;28.63;;;-0.70;67.70;;;;;;5116138;28;20032;-20
2022/01/09 00:51:31;;;;;;;50.63;28.17;;;-0.60;69.90;;;;;;5116628;28;20076;-20
2022/01/09 00:53:57;;;;;;;55.70;30.60;;;-0.50;68.30;;;;;;5115627;28;20034;-20
2022/01/09 00:56:24;;;;;;;47.85;27.15;;;-0.50;68.00;;;;;;5115750;28;20024;-20
2022/01/09 00:58:50;;;;;;;37.00;19.83;;;-0.40;67.70;;;;;;5115604;28;20057;-20
2022/01/09 01:01:16;;;;;;;41.85;24.65;;;-0.30;67.40;;;;;;5115859;28;20023;-20
2022/01/09 01:03:41;;;;;;;31.23;16.92;;;-0.30;66.70;;;;;;5115677;28;20020;-20
2022/01/09 01:06:07;;;;;;;18.58;10.52;;;-0.20;65.90;;;;;;5115619;28;20035;-20
2022/01/09 01:08:33;;;;;;;17.52;8.32;;;-0.20;65.70;;;;;;5115317;28;20481;-20
2022/01/09 01:10:59;;;;;;;55.10;31.55;;;-0.10;64.90;;;;;;5115566;28;20031;-20
2022/01/09 01:13:25;;;;;;;41.25;21.15;;;-0.20;67.80;;;;;;5115265;28;20483;-20
2022/01/09 01:15:51;;;;;;;47.15;28.00;;;-0.10;67.40;;;;;;5115490;28;20447;-20
2022/01/09 01:18:17;;;;;;;50.00;30.27;;;-0.10;66.60;;;;;;5115355;28;20039;-20
2022/01/09 01:20:43;;;;;;;37.95;22.23;;;-0.10;67.30;;;;;;5096930;28;20129;-20
2022/01/09 01:23:09;;;;;;;48.45;26.90;;;-0.10;66.50;;;;;;5115113;28;20031;-20
2022/01/09 01:25:36;;;;;;;26.95;15.32;;;-0.20;65.80;;;;;;5115106;28;20016;-20
2022/01/09 01:28:03;;;;;;;55.30;32.78;;;-0.10;65.70;;;;;;5114483;28;20036;-20
2022/01/09 01:30:29;;;;;;;21.88;12.30;;;-0.10;66.00;;;;;;5114950;28;20057;-20
2022/01/09 01:32:55;;;;;;;18.75;10.43;;;-0.20;65.40;;;;;;5115421;28;20020;-20
2022/01/09 01:35:20;;;;;;;21.70;11.15;;;-0.10;65.00;;;;;;5114865;28;20031;-19
2022/01/09 01:37:46;;;;;;;39.47;25.25;;;-0.20;64.90;;;;;;5115591;28;20097;-20
2022/01/09 01:40:18;;;;;;;21.67;12.63;;;-0.20;64.90;;;;;;5096702;28;20112;-21
2022/01/09 01:42:45;;;;;;;39.72;22.23;;;-0.10;64.50;;;;;;5115187;28;20480;-20
2022/01/09 01:45:12;;;;;;;56.80;31.80;;;-0.20;66.60;;;;;;5114988;28;20044;-19
2022/01/09 01:47:39;;;;;;;26.83;14.52;;;-0.20;66.90;;;;;;5114590;28;20019;-20
2022/01/09 01:50:07;;;;;;;17.33;9.05;;;-0.20;66.00;;;;;;5114610;28;20062;-19
2022/01/09 01:52:41;;;;;;;14.55;7.70;;;-0.20;65.20;;;;;;5114580;28;20023;-20
2022/01/09 01:55:10;;;;;;;35.25;21.90;;;-0.20;64.70;;;;;;5114920;28;20023;-20
2022/01/09 01:57:39;;;;;;;49.17;27.48;;;-0.20;64.70;;;;;;5096302;28;20077;-20
2022/01/09 02:00:10;;;;;;;33.42;20.25;;;-0.20;65.10;;;;;;5114714;28;20063;-20
2022/01/09 02:02:36;;;;;;;26.15;15.07;;;-0.20;65.70;;;;;;5115352;28;20016;-20
2022/01/09 02:05:04;;;;;;;40.78;24.67;;;-0.30;65.70;;;;;;5114292;28;20356;-20
2022/01/09 02:07:31;;;;;;;46.13;27.27;;;-0.20;66.10;;;;;;5095902;28;20027;-20
2022/01/09 02:09:58;;;;;;;20.50;11.60;;;-0.20;66.80;;;;;;5114211;28;20031;-20
2022/01/09 02:12:24;;;;;;;29.55;15.88;;;-0.20;65.80;;;;;;5114066;28;20504;-20
2022/01/09 02:14:49;;;;;;;32.70;19.27;;;-0.10;65.40;;;;;;5114363;28;20107;-20
2022/01/09 02:17:21;;;;;;;35.30;19.90;;;-0.10;65.90;;;;;;5114104;28;20121;-20
2022/01/09 02:19:54;;;;;;;53.92;30.58;;;-0.10;65.70;;;;;;5114394;28;20498;-20
2022/01/09 02:22:22;;;;;;;27.03;12.67;;;0.00;65.10;;;;;;5095628;28;20024;-20
2022/01/09 02:24:49;;;;;;;31.33;17.38;;;0.00;65.10;;;;;;5114008;28;20055;-20
2022/01/09 02:27:16;;;;;;;57.40;31.23;;;0.00;66.40;;;;;;5113871;28;20578;-20
2022/01/09 02:29:46;;;;;;;38.38;21.38;;;0.00;66.80;;;;;;5114202;28;20054;-19
2022/01/09 02:32:16;;;;;;;49.65;28.13;;;0.00;66.20;;;;;;5113983;28;20054;-21
2022/01/09 02:34:50;;;;;;;49.20;27.45;;;0.00;67.20;;;;;;5113838;28;20069;-20
2022/01/09 02:37:16;;;;;;;49.83;26.88;;;0.00;66.30;;;;;;5113723;28;20047;-20
2022/01/09 02:39:43;;;;;;;33.10;16.45;;;0.00;67.50;;;;;;5115100;27;20075;-19
2022/01/09 02:42:28;;;;;;;32.92;17.38;;;0.00;66.70;;;;;;5095334;28;20046;-19
2022/01/09 02:44:55;;;;;;;20.60;10.13;;;0.00;65.70;;;;;;5113746;28;20481;-19
2022/01/09 02:47:22;;;;;;;19.77;11.05;;;0.00;65.60;;;;;;5113928;28;20036;-19
2022/01/09 02:49:51;;;;;;;17.88;10.02;;;0.00;65.40;;;;;;5078721;28;20073;-21
2022/01/09 02:52:29;;;;;;;15.50;9.25;;;0.00;65.40;;;;;;5113306;28;20027;-20
2022/01/09 02:55:14;;;;;;;14.40;7.65;;;-0.10;65.20;;;;;;5113976;28;20081;-19
2022/01/09 02:57:41;;;;;;;15.85;9.13;;;-0.10;64.90;;;;;;5098706;28;20096;-19
2022/01/09 03:00:10;;;;;;;13.27;6.57;;;-0.10;64.90;;;;;;5113641;28;20051;-19
2022/01/09 03:02:36;;;;;;;29.73;16.30;;;-0.10;64.60;;;;;;5095106;28;20026;-20
2022/01/09 03:05:03;;;;;;;32.25;18.23;;;-0.20;64.80;;;;;;5113774;28;20019;-20
2022/01/09 03:07:29;;;;;;;30.58;17.67;;;-0.20;65.50;;;;;;5113235;28;20032;-20
2022/01/09 03:09:55;;;;;;;22.98;12.90;;;-0.20;65.90;;;;;;5095213;28;20035;-20
2022/01/09 03:12:23;;;;;;;31.42;16.90;;;-0.30;65.60;;;;;;5113200;28;20052;-20
2022/01/09 03:14:50;;;;;;;25.70;12.85;;;-0.30;66.10;;;;;;5113363;28;20118;-19
2022/01/09 03:17:16;;;;;;;15.18;9.05;;;-0.40;66.80;;;;;;5113373;28;20020;-20
2022/01/09 03:19:41;;;;;;;41.47;23.70;;;-0.40;65.80;;;;;;5095147;28;20028;-20
2022/01/09 03:22:08;;;;;;;17.60;10.02;;;-0.40;65.60;;;;;;5113519;28;20035;-20
2022/01/09 03:24:34;;;;;;;16.63;8.63;;;-0.50;65.80;;;;;;5113388;28;20027;-20
2022/01/09 03:27:02;;;;;;;14.13;7.57;;;-0.50;65.50;;;;;;5113494;28;20102;-20
2022/01/09 03:29:29;;;;;;;17.92;9.82;;;-0.50;65.40;;;;;;5113227;28;20466;-20
2022/01/09 03:31:55;;;;;;;17.73;10.68;;;-0.60;65.60;;;;;;5113381;28;20499;-20
2022/01/09 03:34:21;;;;;;;18.10;10.85;;;-0.60;65.60;;;;;;5112978;28;20050;-20
2022/01/09 03:36:47;;;;;;;16.42;9.70;;;-0.60;66.20;;;;;;5113416;28;20022;-19
2022/01/09 03:39:13;;;;;;;14.07;8.05;;;-0.70;65.80;;;;;;5113086;28;20414;-20
2022/01/09 03:41:39;;;;;;;14.00;6.47;;;-0.70;65.80;;;;;;5094941;28;20023;-20
2022/01/09 03:44:05;;;;;;;10.70;6.50;;;-0.80;65.50;;;;;;5113369;28;20030;-20
2022/01/09 03:46:31;;;;;;;18.27;9.35;;;-0.80;65.30;;;;;;5113097;28;20023;-20
2022/01/09 03:48:57;;;;;;;25.10;14.43;;;-0.80;65.40;;;;;;5113046;28;20106;-20
2022/01/09 03:51:26;;;;;;;25.85;14.93;;;-0.80;66.30;;;;;;5113879;28;20070;-20
2022/01/09 03:53:52;;;;;;;39.45;20.45;;;-0.80;66.20;;;;;;5117061;28;20027;-20
2022/01/09 03:56:18;;;;;;;24.55;13.30;;;-0.80;66.70;;;;;;5116643;28;20047;-21
2022/01/09 03:58:44;;;;;;;22.58;12.25;;;-0.80;66.70;;;;;;5116769;28;20100;-20
2022/01/09 04:01:10;;;;;;;21.15;11.70;;;-0.80;66.30;;;;;;5116762;28;20024;-20
2022/01/09 04:03:36;;;;;;;17.67;8.48;;;-0.80;66.00;;;;;;5117009;28;20023;-20
2022/01/09 04:06:03;;;;;;;16.10;9.40;;;-0.80;65.80;;;;;;5116737;28;20031;-21
2022/01/09 04:08:29;;;;;;;26.30;13.27;;;-0.80;65.60;;;;;;5116268;28;20532;-20
2022/01/09 04:10:55;;;;;;;20.30;11.70;;;-0.80;65.80;;;;;;5098592;28;20027;-20
2022/01/09 04:13:22;;;;;;;17.25;9.85;;;-0.80;66.10;;;;;;5116791;28;20483;-20
2022/01/09 04:15:49;;;;;;;42.00;22.80;;;-0.80;66.10;;;;;;5116804;28;20062;-20
2022/01/09 04:18:17;;;;;;;34.10;17.92;;;-0.80;67.00;;;;;;5116421;28;20030;-20
2022/01/09 04:20:43;;;;;;;36.85;20.05;;;-0.80;68.20;;;;;;5116371;28;20032;-20
2022/01/09 04:23:11;;;;;;;19.38;10.43;;;-0.90;67.40;;;;;;5116213;28;20110;-20
2022/01/09 04:25:38;;;;;;;15.50;8.07;;;-0.90;67.20;;;;;;5116249;28;20046;-20
2022/01/09 04:28:05;;;;;;;25.25;15.00;;;-0.90;66.40;;;;;;5116538;28;20514;-20
2022/01/09 04:30:31;;;;;;;16.50;8.55;;;-0.90;66.40;;;;;;5116222;28;20026;-20
2022/01/09 04:32:57;;;;;;;12.00;6.20;;;-0.90;66.50;;;;;;5116098;28;20027;-20
2022/01/09 04:35:23;;;;;;;11.52;6.15;;;-1.00;66.10;;;;;;5116389;28;20026;-20
2022/01/09 04:37:49;;;;;;;24.88;15.45;;;-1.00;66.00;;;;;;5116271;28;20030;-20
2022/01/09 04:40:19;;;;;;;14.40;7.85;;;-1.00;66.50;;;;;;5115602;28;20100;-21
2022/01/09 04:42:49;;;;;;;10.65;5.40;;;-1.00;66.10;;;;;;5115953;28;20507;-20
2022/01/09 04:45:17;;;;;;;8.70;5.03;;;-1.00;66.00;;;;;;5115972;28;20027;-20
2022/01/09 04:47:47;;;;;;;10.35;5.60;;;-1.00;65.90;;;;;;5116069;28;20058;-20
2022/01/09 04:50:23;;;;;;;10.05;4.68;;;-1.00;65.90;;;;;;5115688;28;20024;-20
2022/01/09 04:52:53;;;;;;;9.50;4.35;;;-1.00;65.70;;;;;;5115614;28;20059;-20
2022/01/09 04:55:19;;;;;;;14.25;6.65;;;-1.00;65.70;;;;;;5115745;28;20114;-20
2022/01/09 04:57:45;;;;;;;21.88;12.43;;;-1.00;65.90;;;;;;5116044;28;20031;-20
2022/01/09 05:00:12;;;;;;;16.60;8.45;;;-1.00;66.30;;;;;;5115927;28;20536;-20
2022/01/09 05:02:38;;;;;;;15.35;7.60;;;-1.00;66.60;;;;;;5115257;28;20023;-20
2022/01/09 05:05:06;;;;;;;14.15;7.45;;;-1.00;66.60;;;;;;5115586;28;20026;-20
2022/01/09 05:07:32;;;;;;;9.50;4.88;;;-1.00;66.50;;;;;;5115840;28;20060;-20
2022/01/09 05:09:58;;;;;;;11.10;5.25;;;-0.90;66.30;;;;;;5115339;28;20060;-20
2022/01/09 05:12:24;;;;;;;8.20;4.45;;;-0.90;66.10;;;;;;5115280;28;20028;-20
2022/01/09 05:14:50;;;;;;;17.92;10.00;;;-0.80;65.90;;;;;;5115614;28;20019;-20
2022/01/09 05:17:16;;;;;;;14.32;6.25;;;-0.80;65.70;;;;;;5115529;28;20027;-20
2022/01/09 05:19:43;;;;;;;23.63;12.63;;;-0.70;65.60;;;;;;5115685;28;20035;-20
2022/01/09 05:22:09;;;;;;;18.35;9.07;;;-0.60;65.30;;;;;;5115399;28;20056;-20
2022/01/09 05:24:35;;;;;;;20.73;9.70;;;-0.60;66.10;;;;;;5114919;28;20031;-20
2022/01/09 05:27:02;;;;;;;26.75;16.05;;;-0.60;67.20;;;;;;5115472;28;20028;-20
2022/01/09 05:29:28;;;;;;;31.55;18.65;;;-0.60;67.40;;;;;;5115321;28;20201;-20
2022/01/09 05:31:54;;;;;;;23.70;12.63;;;-0.60;70.20;;;;;;5114955;28;20119;-20
2022/01/09 05:34:20;;;;;;;19.65;9.50;;;-0.50;68.40;;;;;;5114876;28;20019;-19
2022/01/09 05:36:46;;;;;;;24.33;10.50;;;-0.50;67.80;;;;;;5115186;28;20437;-20
2022/01/09 05:39:12;;;;;;;19.38;10.30;;;-0.50;67.30;;;;;;5114549;28;20044;-20
2022/01/09 05:41:41;;;;;;;21.02;12.52;;;-0.50;67.10;;;;;;5115152;28;20042;-20
2022/01/09 05:44:07;;;;;;;22.55;12.10;;;-0.50;67.30;;;;;;5114736;28;20032;-20
2022/01/09 05:46:33;;;;;;;18.33;10.95;;;-0.60;67.70;;;;;;5114477;28;20019;-20
2022/01/09 05:48:59;;;;;;;16.90;9.30;;;-0.60;67.20;;;;;;5114931;28;20042;-20
2022/01/09 05:51:25;;;;;;;13.50;7.32;;;-0.60;66.70;;;;;;5114569;28;20086;-20
2022/01/09 05:53:51;;;;;;;23.42;13.20;;;-0.60;66.80;;;;;;5114731;28;20055;-20
2022/01/09 05:56:17;;;;;;;20.80;11.07;;;-0.60;67.80;;;;;;5114492;28;20016;-20
2022/01/09 05:58:43;;;;;;;14.80;8.77;;;-0.60;68.40;;;;;;5114350;28;20019;-20
2022/01/09 06:01:09;;;;;;;17.05;10.57;;;-0.70;67.60;;;;;;5114411;28;20496;-20
2022/01/09 06:03:35;;;;;;;11.95;6.85;;;-0.70;67.20;;;;;;5114984;28;20348;-20
2022/01/09 06:06:02;;;;;;;30.50;16.17;;;-0.70;67.00;;;;;;5114525;28;20027;-20
2022/01/09 06:08:28;;;;;;;31.80;18.70;;;-0.70;67.20;;;;;;5114028;28;20028;-20
2022/01/09 06:10:54;;;;;;;32.83;17.80;;;-0.70;69.70;;;;;;5114278;28;20102;-20
2022/01/09 06:13:20;;;;;;;29.75;15.73;;;-0.70;71.10;;;;;;5114547;28;20031;-20
2022/01/09 06:15:46;;;;;;;31.42;16.48;;;-0.70;71.40;;;;;;5114490;28;20020;-20
2022/01/09 06:18:12;;;;;;;26.20;15.18;;;-0.70;71.90;;;;;;5114245;28;20034;-22
2022/01/09 06:20:39;;;;;;;24.27;13.00;;;-0.60;72.00;;;;;;5114405;28;20020;-20
2022/01/09 06:23:06;;;;;;;23.27;13.77;;;-0.50;71.30;;;;;;5113946;28;20035;-20
2022/01/09 06:25:31;;;;;;;24.17;12.40;;;-0.50;71.50;;;;;;5114126;28;20494;-20
2022/01/09 06:27:57;;;;;;;19.58;10.98;;;-0.40;71.60;;;;;;5113919;28;20070;-19
2022/01/09 06:30:23;;;;;;;21.17;9.95;;;-0.30;71.00;;;;;;5113702;28;20115;-20
2022/01/09 06:32:49;;;;;;;11.45;6.22;;;-0.20;70.10;;;;;;5113906;28;20023;-20
2022/01/09 06:35:15;;;;;;;12.07;6.38;;;-0.10;69.30;;;;;;5114148;28;20027;-20
2022/01/09 06:37:41;;;;;;;16.35;8.63;;;-0.10;68.70;;;;;;5114048;28;20030;-20
2022/01/09 06:40:08;;;;;;;15.18;8.38;;;0.00;68.60;;;;;;5095379;28;20139;-20
2022/01/09 06:42:34;;;;;;;16.85;9.10;;;0.00;68.30;;;;;;5113918;28;20028;-20
2022/01/09 06:45:00;;;;;;;23.83;13.35;;;0.00;68.50;;;;;;5113736;28;20035;-20
2022/01/09 06:47:26;;;;;;;19.90;11.15;;;0.10;68.60;;;;;;5113716;28;20023;-20
2022/01/09 06:54:18;;;;;;;10.68;6.15;;;0.10;68.00;;;;;;5089849;27;20956;-19
2022/01/09 06:56:52;;;;;;;9.68;4.80;;;0.10;67.60;;;;;;5090708;28;20032;-20
2022/01/09 06:59:18;;;;;;;8.10;4.35;;;0.10;67.40;;;;;;5090780;28;20024;-19
2022/01/09 07:01:44;;;;;;;7.28;4.40;;;0.10;67.40;;;;;;5090740;28;20077;-20
2022/01/09 07:04:10;;;;;;;6.05;3.78;;;0.20;67.00;;;;;;5090462;28;20025;-20
2022/01/09 07:06:36;;;;;;;12.50;6.97;;;0.20;66.80;;;;;;5090344;28;20026;-20
2022/01/09 07:09:03;;;;;;;6.93;4.10;;;0.20;66.80;;;;;;5090387;28;20024;-19
2022/01/09 07:11:29;;;;;;;6.30;3.67;;;0.20;66.90;;;;;;5090355;28;20028;-19
2022/01/09 07:13:54;;;;;;;8.43;4.70;;;0.20;66.60;;;;;;5106039;28;20077;-20
2022/01/09 07:16:21;;;;;;;14.43;8.30;;;0.30;66.90;;;;;;5090104;28;20383;-20
2022/01/09 07:18:47;;;;;;;11.73;5.85;;;0.20;66.90;;;;;;5090541;28;20028;-19
2022/01/09 07:21:13;;;;;;;14.70;9.05;;;0.30;66.80;;;;;;5090782;28;20491;-20
2022/01/09 07:23:38;;;;;;;9.13;4.88;;;0.30;67.70;;;;;;5090355;28;20024;-19
2022/01/09 07:26:04;;;;;;;10.07;5.65;;;0.30;67.40;;;;;;5090721;28;20039;-19
2022/01/09 07:28:30;;;;;;;7.50;3.92;;;0.30;67.30;;;;;;5090819;28;20028;-19
2022/01/09 07:30:59;;;;;;;6.78;3.40;;;0.40;67.00;;;;;;5090285;28;20039;-19
2022/01/09 07:33:25;;;;;;;5.10;3.13;;;0.50;66.90;;;;;;5090156;28;20025;-19
2022/01/09 07:35:51;;;;;;;6.53;3.17;;;0.60;66.70;;;;;;5090053;28;20047;-20
2022/01/09 07:38:17;;;;;;;5.88;3.08;;;0.60;66.60;;;;;;5089579;28;20032;-19
2022/01/09 07:40:43;;;;;;;22.40;11.55;;;0.70;66.50;;;;;;5089809;28;20082;-19
2022/01/09 07:43:08;;;;;;;11.73;6.80;;;0.80;66.50;;;;;;5090036;28;20024;-19
2022/01/09 07:45:35;;;;;;;14.85;8.52;;;0.90;66.80;;;;;;5090030;28;20554;-19
2022/01/09 07:48:02;;;;;;;15.02;8.95;;;0.90;66.60;;;;;;5089669;28;20086;-20
2022/01/09 07:50:28;;;;;;;11.32;6.68;;;0.90;67.00;;;;;;5089431;28;20549;-19
2022/01/09 07:52:56;;;;;;;13.02;7.38;;;1.00;67.60;;;;;;5089128;28;20056;-20
2022/01/09 07:55:22;;;;;;;21.85;12.82;;;1.00;66.60;;;;;;5089819;28;20024;-19
2022/01/09 07:57:49;;;;;;;22.00;12.55;;;1.10;67.50;;;;;;5089541;28;20024;-20
2022/01/09 08:00:16;;;;;;;15.77;9.68;;;1.10;68.10;;;;;;5089337;28;20021;-20
2022/01/09 08:02:43;;;;;;;10.93;6.55;;;1.10;68.00;;;;;;5089669;28;20388;-19
2022/01/09 08:05:10;;;;;;;20.00;12.32;;;1.10;67.00;;;;;;5078797;28;20025;-20
2022/01/09 08:07:37;;;;;;;13.07;7.95;;;1.10;67.30;;;;;;5075718;28;20078;-19
2022/01/09 08:10:03;;;;;;;18.95;11.43;;;1.10;67.40;;;;;;5075741;28;20515;-19
2022/01/09 08:12:29;;;;;;;20.30;11.85;;;1.10;67.40;;;;;;5075434;28;20025;-19
2022/01/09 08:14:55;;;;;;;27.42;14.45;;;1.20;67.50;;;;;;5075960;28;20031;-19
2022/01/09 08:17:21;;;;;;;22.55;13.45;;;1.20;67.50;;;;;;5075948;28;20473;-20
2022/01/09 08:19:47;;;;;;;12.95;8.07;;;1.20;67.10;;;;;;5075629;28;20035;-20
2022/01/09 08:22:13;;;;;;;23.98;14.43;;;1.20;67.10;;;;;;5075370;28;20025;-20
2022/01/09 08:24:40;;;;;;;23.30;14.98;;;1.30;67.70;;;;;;5075797;28;20020;-19
2022/01/09 08:27:07;;;;;;;35.30;21.80;;;1.30;67.90;;;;;;5075702;28;20071;-21
2022/01/09 08:29:34;;;;;;;25.77;15.32;;;1.30;67.80;;;;;;5075766;28;20082;-20
2022/01/09 08:32:01;;;;;;;22.85;14.10;;;1.40;67.90;;;;;;5075273;28;20056;-20
2022/01/09 08:34:27;;;;;;;26.60;15.02;;;1.40;67.90;;;;;;5075433;28;20081;-19
2022/01/09 08:36:53;;;;;;;23.77;14.10;;;1.50;68.30;;;;;;5076083;28;20024;-20
2022/01/09 08:39:19;;;;;;;17.33;10.60;;;1.50;67.90;;;;;;5075154;28;20032;-20
2022/01/09 08:41:45;;;;;;;17.75;10.50;;;1.60;67.90;;;;;;5075716;28;20032;-20
2022/01/09 08:44:11;;;;;;;17.63;9.73;;;1.70;67.60;;;;;;5075940;28;20043;-20
2022/01/09 08:46:38;;;;;;;35.85;20.17;;;1.90;67.30;;;;;;5075531;28;20055;-20
2022/01/09 08:49:05;;;;;;;27.20;17.55;;;2.00;67.60;;;;;;5075323;28;20032;-19
2022/01/09 08:51:32;;;;;;;20.38;12.25;;;2.10;67.00;;;;;;5075325;28;20038;-20
2022/01/09 08:53:59;;;;;;;14.55;8.10;;;2.10;67.00;;;;;;5074727;28;20139;-20
2022/01/09 08:56:27;;;;;;;23.55;13.77;;;2.20;66.30;;;;;;5075012;28;20025;-20
2022/01/09 08:58:55;;;;;;;27.17;16.58;;;2.30;66.60;;;;;;5075147;28;20024;-20
2022/01/09 09:01:21;;;;;;;32.92;20.13;;;2.40;66.50;;;;;;5074772;28;20025;-20
2022/01/09 09:03:46;;;;;;;32.65;19.15;;;2.40;66.20;;;;;;5074743;28;20019;-20
2022/01/09 09:06:15;;;;;;;28.92;17.52;;;2.50;66.50;;;;;;5074485;28;20028;-22
2022/01/09 09:08:42;;;;;;;20.13;12.05;;;2.50;66.70;;;;;;5074763;28;20016;-20
2022/01/09 09:11:10;;;;;;;24.95;16.35;;;2.60;66.60;;;;;;5074983;28;20484;-20
2022/01/09 09:13:38;;;;;;;26.75;16.92;;;2.60;66.20;;;;;;5073244;28;20078;-20
2022/01/09 09:16:05;;;;;;;36.83;23.02;;;2.60;66.30;;;;;;5072307;28;20039;-20
2022/01/09 09:18:31;;;;;;;36.97;22.58;;;2.60;66.50;;;;;;5073102;28;20434;-20
2022/01/09 09:20:57;;;;;;;29.75;18.15;;;2.70;66.80;;;;;;5074695;28;20396;-23
2022/01/09 09:23:23;;;;;;;32.25;19.85;;;2.70;66.40;;;;;;5074788;28;20074;-20
2022/01/09 09:25:49;;;;;;;32.35;19.65;;;2.70;66.40;;;;;;5074447;28;20025;-21
2022/01/09 09:28:16;;;;;;;33.60;19.73;;;2.80;66.50;;;;;;5074349;28;20021;-21
2022/01/09 09:30:42;;;;;;;38.17;22.90;;;2.80;66.70;;;;;;5074535;28;20035;-21
2022/01/09 09:33:09;;;;;;;29.10;17.27;;;2.80;66.70;;;;;;5074370;28;20039;-21
2022/01/09 09:35:36;;;;;;;21.98;11.90;;;2.80;66.80;;;;;;5074029;28;20033;-21
2022/01/09 09:38:03;;;;;;;28.75;17.38;;;2.90;66.50;;;;;;5072726;28;20017;-21
2022/01/09 09:40:32;;;;;;;38.15;24.30;;;2.90;66.50;;;;;;5073810;28;20035;-22
2022/01/09 09:42:59;;;;;;;32.40;19.05;;;2.90;66.70;;;;;;5074529;28;20024;-21
2022/01/09 09:45:25;;;;;;;29.80;17.85;;;3.00;66.50;;;;;;5073901;28;20016;-22
2022/01/09 09:47:51;;;;;;;31.77;17.40;;;3.00;66.30;;;;;;5074185;28;20029;-22
2022/01/09 09:50:19;;;;;;;35.20;21.50;;;3.10;66.30;;;;;;5073929;28;20028;-23
2022/01/09 09:52:47;;;;;;;30.48;17.15;;;3.20;66.20;;;;;;5073524;28;20130;-22
2022/01/09 09:55:13;;;;;;;24.85;15.10;;;3.30;66.10;;;;;;5074024;28;20056;-22
2022/01/09 09:57:39;;;;;;;27.35;15.73;;;3.30;65.80;;;;;;5074298;28;20074;-23
2022/01/09 10:00:20;;;;;;;24.55;15.50;;;3.40;65.80;;;;;;5073989;28;20111;-22
2022/01/09 10:03:01;;;;;;;37.15;20.25;;;3.50;65.60;;;;;;5074026;28;20021;-23
2022/01/09 10:05:33;;;;;;;35.63;19.80;;;3.50;65.30;;;;;;5073959;28;20477;-23
2022/01/09 10:08:15;;;;;;;24.83;15.20;;;3.60;65.30;;;;;;5073798;28;20502;-21
2022/01/09 10:10:42;;;;;;;30.17;17.73;;;3.60;65.10;;;;;;5073718;28;20067;-23
2022/01/09 10:13:10;;;;;;;19.75;12.63;;;3.70;65.40;;;;;;5073440;28;20064;-22
2022/01/09 10:15:43;;;;;;;23.42;15.60;;;3.80;65.00;;;;;;5073451;28;20500;-22
2022/01/09 10:18:09;;;;;;;20.60;14.63;;;3.90;64.90;;;;;;5073694;28;20082;-22
2022/01/09 10:20:35;;;;;;;32.38;19.95;;;3.90;64.90;;;;;;5073449;28;20033;-22
2022/01/09 10:23:01;;;;;;;26.20;16.60;;;4.00;64.50;;;;;;5073314;28;20098;-22
2022/01/09 10:25:31;;;;;;;24.02;14.65;;;4.10;64.40;;;;;;5072336;28;20032;-22
2022/01/09 10:28:02;;;;;;;21.85;13.35;;;4.10;64.10;;;;;;5073335;28;20059;-22
2022/01/09 10:30:35;;;;;;;17.45;9.57;;;4.20;63.80;;;;;;5073079;28;20043;-22
2022/01/09 10:33:04;;;;;;;21.77;13.75;;;4.20;63.60;;;;;;5073508;28;20039;-22
2022/01/09 10:35:30;;;;;;;26.30;15.00;;;4.20;63.60;;;;;;5073206;28;20029;-23
2022/01/09 10:38:17;;;;;;;25.85;15.88;;;4.30;63.20;;;;;;5072942;28;20082;-22
2022/01/09 10:40:49;;;;;;;25.83;16.23;;;4.40;63.20;;;;;;5073062;28;20029;-22
2022/01/09 10:43:18;;;;;;;25.23;14.95;;;4.40;63.00;;;;;;5073141;28;20032;-22
2022/01/09 10:45:49;;;;;;;27.88;17.17;;;4.40;62.90;;;;;;5073318;28;20013;-22
2022/01/09 10:48:21;;;;;;;20.80;13.48;;;4.40;62.70;;;;;;5073141;28;20474;-23
2022/01/09 10:50:49;;;;;;;25.40;15.00;;;4.50;62.80;;;;;;5073043;28;20032;-22
2022/01/09 10:53:26;;;;;;;23.65;12.35;;;4.50;62.70;;;;;;5072577;28;20153;-22
2022/01/09 10:56:04;;;;;;;25.50;15.45;;;4.60;62.70;;;;;;5073010;28;20500;-21
2022/01/09 10:58:31;;;;;;;18.98;11.32;;;4.60;62.70;;;;;;5072688;28;20029;-22
2022/01/09 11:01:07;;;;;;;26.00;16.80;;;4.60;62.60;;;;;;5072912;28;20020;-23
2022/01/09 11:03:33;;;;;;;24.02;15.80;;;4.70;62.60;;;;;;5073217;28;20025;-22
2022/01/09 11:06:01;;;;;;;29.00;16.23;;;4.70;62.40;;;;;;5072791;28;20528;-22
2022/01/09 11:08:30;;;;;;;28.10;17.17;;;4.70;62.20;;;;;;5072522;28;20032;-23
2022/01/09 11:10:58;;;;;;;22.40;12.10;;;4.70;61.90;;;;;;5072811;28;20488;-23
2022/01/09 11:13:26;;;;;;;23.73;15.85;;;4.80;62.40;;;;;;5072721;28;20025;-22
2022/01/09 11:18:39;;;;;;;20.00;12.32;;;4.80;61.80;;;;;;5073363;28;20039;-22
2022/01/09 11:21:06;;;;;;;26.67;14.63;;;4.90;62.00;;;;;;5072729;28;20511;-22
2022/01/09 11:24:09;;;;;;;22.42;13.45;;;4.90;61.20;;;;;;5072806;28;20017;-22
2022/01/09 11:26:57;;;;;;;21.63;14.00;;;4.90;61.50;;;;;;5052911;28;20048;-22
2022/01/09 11:29:31;;;;;;;19.67;12.20;;;4.90;61.80;;;;;;5073012;28;20082;-22
2022/01/09 11:32:15;;;;;;;18.90;12.30;;;4.90;61.80;;;;;;5072840;28;20033;-22
2022/01/09 11:34:52;;;;;;;;;;;4.90;61.60;;;;;;5073072;28;20032;-23
2022/01/09 11:37:25;;;;;;;21.55;12.85;;;4.90;60.10;;;;;;5072827;28;19908;-22
2022/01/09 11:39:51;;;;;;;24.13;14.60;;;5.00;61.30;;;;;;5074547;28;20070;-22
2022/01/09 11:42:18;;;;;;;23.25;14.40;;;5.00;60.20;;;;;;5076342;28;20124;-22
2022/01/09 11:44:53;;;;;;;23.95;15.13;;;5.00;59.70;;;;;;5076726;28;20028;-22
2022/01/09 11:47:20;;;;;;;28.00;17.20;;;5.00;59.80;;;;;;5076175;28;20122;-22
2022/01/09 11:49:55;;;;;;;29.35;18.08;;;5.00;58.80;;;;;;5076446;28;20100;-23
2022/01/09 11:52:24;;;;;;;25.58;16.08;;;4.90;58.70;;;;;;5075833;28;20131;-22
2022/01/09 11:54:52;;;;;;;28.00;17.13;;;5.00;59.60;;;;;;5075969;28;20050;-22
2022/01/09 11:57:43;;;;;;;29.60;16.92;;;5.00;59.80;;;;;;5076318;28;20119;-23
2022/01/09 12:00:31;;;;;;;26.55;17.05;;;5.00;60.30;;;;;;5075993;28;20025;-22
2022/01/09 12:02:58;;;;;;;22.15;13.90;;;5.10;60.00;;;;;;5072135;28;20112;-23
2022/01/09 12:05:25;;;;;;;24.27;16.13;;;5.10;59.80;;;;;;5076230;28;20033;-22
2022/01/09 12:07:54;;;;;;;26.58;16.73;;;5.10;60.00;;;;;;5076090;28;20024;-22
2022/01/09 12:10:30;;;;;;;28.98;18.50;;;5.10;59.70;;;;;;5075580;28;20036;-23
2022/01/09 12:12:57;;;;;;;23.70;16.00;;;5.00;59.20;;;;;;5076065;28;20060;-22
2022/01/09 12:15:40;;;;;;;27.58;15.70;;;5.00;59.50;;;;;;5076034;28;20021;-22
2022/01/09 12:18:27;;;;;;;25.58;17.33;;;5.00;60.00;;;;;;5075969;28;20066;-23
2022/01/09 12:20:53;;;;;;;26.80;16.92;;;4.90;59.10;;;;;;5075432;28;20032;-22
2022/01/09 12:23:21;;;;;;;26.67;16.67;;;4.90;59.10;;;;;;5075736;28;20025;-22
2022/01/09 12:25:50;;;;;;;21.90;14.68;;;4.90;59.70;;;;;;5075971;28;20036;-22
2022/01/09 12:28:24;;;;;;;17.30;12.20;;;4.90;60.00;;;;;;5075245;28;20108;-22
2022/01/09 12:30:58;;;;;;;22.17;14.13;;;4.90;60.10;;;;;;5075805;28;20021;-22
2022/01/09 12:33:25;;;;;;;25.85;15.27;;;5.00;59.60;;;;;;5076000;28;20111;-22
2022/01/09 12:36:07;;;;;;;15.15;8.82;;;5.00;59.50;;;;;;5076210;28;20103;-22
2022/01/09 12:38:45;;;;;;;13.00;7.72;;;5.00;60.30;;;;;;5075090;28;20431;-22
2022/01/09 12:41:24;;;;;;;23.10;14.50;;;5.10;60.40;;;;;;5075523;28;20119;-23
2022/01/09 12:43:58;;;;;;;23.38;13.50;;;5.10;60.50;;;;;;5075193;28;20033;-22
2022/01/09 12:46:24;;;;;;;12.65;7.68;;;5.20;60.40;;;;;;5075291;28;20055;-22